createdAt,value
2023-02-05T00:10:14.563Z,31.20
2023-02-05T00:25:17.007Z,26.37
2023-02-05T00:40:19.650Z,27.13
2023-02-05T00:55:22.226Z,24.23
2023-02-05T01:10:25.774Z,26.73
2023-02-05T01:25:28.471Z,24.83
2023-02-05T01:40:31.232Z,21.63
2023-02-05T01:55:36.380Z,25.10
2023-02-05T02:10:41.972Z,29.30
2023-02-05T02:26:04.368Z,32.17
2023-02-05T02:41:28.322Z,34.27
2023-02-05T02:56:33.460Z,35.97
2023-02-05T03:11:36.276Z,37.30
2023-02-05T03:26:39.505Z,39.23
2023-02-05T03:42:00.055Z,41.63
2023-02-05T03:57:24.045Z,45.90
2023-02-05T04:12:27.008Z,46.80
2023-02-05T04:27:29.612Z,42.67
2023-02-05T04:42:34.857Z,43.03
2023-02-05T04:57:37.298Z,34.77
2023-02-05T05:12:39.795Z,26.33
2023-02-05T05:27:42.240Z,24.73
2023-02-05T05:43:03.382Z,27.43
2023-02-05T05:58:07.102Z,30.10
2023-02-05T06:13:09.502Z,33.83
2023-02-05T06:28:11.966Z,31.73
2023-02-05T06:43:14.724Z,28.80
2023-02-05T06:58:17.137Z,27.90
2023-02-05T07:13:19.449Z,23.73
2023-02-05T07:28:21.840Z,27.97
2023-02-05T07:43:24.446Z,25.57
2023-02-05T07:58:26.900Z,23.23
2023-02-05T08:13:29.735Z,16.13
2023-02-05T08:28:33.071Z,9.40
2023-02-05T08:43:35.629Z,3.93
2023-02-05T08:58:39.256Z,3.40
2023-02-05T09:13:41.563Z,3.63
2023-02-05T09:28:44.297Z,7.03
2023-02-05T09:43:56.809Z,6.87
2023-02-05T09:58:59.641Z,9.93
2023-02-05T10:14:26.733Z,7.87
2023-02-05T10:29:44.548Z,6.70
2023-02-05T10:44:48.837Z,12.83
2023-02-05T10:59:55.555Z,14.93
2023-02-05T11:15:00.929Z,11.30
2023-02-05T11:30:50.334Z,11.67
2023-02-05T11:45:56.258Z,15.13
2023-02-05T12:01:01.894Z,11.43
2023-02-05T12:16:28.673Z,13.63
2023-02-05T12:31:47.054Z,29.77
2023-02-05T12:47:23.905Z,19.83
2023-02-05T13:02:29.063Z,11.37
2023-02-05T13:17:37.190Z,21.70
2023-02-05T13:32:42.550Z,11.30
2023-02-05T13:48:18.694Z,9.93
2023-02-05T14:03:34.958Z,10.00
2023-02-05T14:18:40.504Z,7.87
2023-02-05T14:33:43.885Z,10.83
2023-02-05T14:48:48.674Z,12.37
2023-02-05T15:03:52.854Z,12.00
2023-02-05T15:19:00.495Z,14.80
2023-02-05T15:34:07.560Z,11.10
2023-02-05T15:49:14.079Z,13.93
2023-02-05T16:04:38.003Z,11.60
2023-02-05T16:19:51.335Z,13.40
2023-02-05T16:34:53.777Z,11.00
2023-02-05T16:49:56.274Z,11.67
2023-02-05T17:05:02.228Z,15.87
2023-02-05T17:20:07.531Z,13.90
2023-02-05T17:35:14.102Z,14.33
2023-02-05T17:50:17.135Z,16.23
2023-02-05T18:05:20.506Z,18.27
2023-02-05T18:20:22.937Z,15.97
2023-02-05T18:35:25.280Z,19.57
2023-02-05T18:50:30.105Z,18.83
2023-02-05T19:05:34.600Z,20.40
2023-02-05T19:20:37.219Z,18.77
2023-02-05T19:35:39.936Z,16.07
2023-02-05T19:50:42.777Z,12.00
2023-02-05T20:05:45.432Z,15.10
2023-02-05T20:20:49.669Z,13.90
2023-02-05T20:35:52.169Z,15.57
2023-02-05T20:50:54.812Z,13.30
2023-02-05T21:06:00.153Z,18.20
2023-02-05T21:21:10.340Z,18.40
2023-02-05T21:36:12.869Z,16.63
2023-02-05T21:51:16.480Z,24.37
2023-02-05T22:06:20.454Z,20.70
2023-02-05T22:21:31.609Z,20.87
2023-02-05T22:36:35.462Z,25.07
2023-02-05T22:51:40.183Z,22.20
2023-02-05T23:06:43.201Z,21.80
2023-02-05T23:21:46.840Z,22.90
2023-02-05T23:36:49.254Z,22.83
2023-02-05T23:51:54.065Z,24.03
